createdAt,value
2023-02-16T00:01:02.354Z,37.42
2023-02-16T00:03:30.887Z,35.50
2023-02-16T00:05:59.267Z,36.42
2023-02-16T00:08:27.414Z,37.97
2023-02-16T00:11:13.215Z,38.42
2023-02-16T00:13:48.678Z,37.55
2023-02-16T00:16:20.022Z,35.13
2023-02-16T00:18:49.723Z,36.67
2023-02-16T00:21:18.727Z,37.30
2023-02-16T00:23:49.898Z,37.53
2023-02-16T00:26:20.255Z,36.10
2023-02-16T00:28:52.220Z,37.10
2023-02-16T00:31:27.496Z,35.03
2023-02-16T00:33:56.864Z,37.33
2023-02-16T00:36:25.924Z,35.90
2023-02-16T00:38:54.202Z,35.40
2023-02-16T00:41:44.875Z,35.70
2023-02-16T00:44:17.460Z,33.97
2023-02-16T00:46:48.356Z,35.45
2023-02-16T00:49:17.543Z,36.90
2023-02-16T00:51:45.853Z,34.05
2023-02-16T00:54:14.865Z,35.50
2023-02-16T00:56:43.863Z,34.67
2023-02-16T00:59:18.757Z,35.53
2023-02-16T01:01:49.875Z,36.83
2023-02-16T01:04:22.184Z,35.20
2023-02-16T01:07:08.115Z,36.40
2023-02-16T01:09:54.059Z,37.38
2023-02-16T01:12:23.405Z,37.33
2023-02-16T01:14:54.327Z,36.88
2023-02-16T01:17:25.952Z,37.33
2023-02-16T01:19:56.863Z,38.25
2023-02-16T01:22:25.091Z,37.85
2023-02-16T01:24:53.262Z,37.25
2023-02-16T01:27:21.464Z,38.25
2023-02-16T01:29:49.800Z,39.05
2023-02-16T01:32:18.137Z,40.33
2023-02-16T01:34:47.942Z,40.22
2023-02-16T01:37:17.232Z,38.88
2023-02-16T01:39:45.652Z,40.67
2023-02-16T01:42:33.425Z,39.30
2023-02-16T01:45:05.182Z,39.85
2023-02-16T01:47:40.551Z,40.30
2023-02-16T01:50:27.205Z,39.55
2023-02-16T01:53:03.661Z,40.42
2023-02-16T01:55:36.683Z,39.13
2023-02-16T01:58:11.867Z,40.30
2023-02-16T02:01:15.792Z,39.40
2023-02-16T02:04:01.557Z,39.78
2023-02-16T02:06:35.665Z,40.08
2023-02-16T02:09:11.234Z,40.22
2023-02-16T02:11:45.017Z,38.75
2023-02-16T02:14:20.369Z,36.53
2023-02-16T02:16:56.356Z,37.00
2023-02-16T02:19:24.704Z,37.38
2023-02-16T02:22:32.105Z,37.65
2023-02-16T02:25:42.242Z,38.42
2023-02-16T02:28:17.384Z,37.33
2023-02-16T02:30:54.804Z,38.42
2023-02-16T02:33:37.171Z,36.95
2023-02-16T02:36:19.967Z,37.40
2023-02-16T02:39:01.072Z,40.42
2023-02-16T02:41:50.477Z,38.70
2023-02-16T02:44:24.138Z,38.13
2023-02-16T02:46:52.785Z,39.38
2023-02-16T02:49:21.620Z,38.08
2023-02-16T02:51:50.656Z,38.97
2023-02-16T02:54:39.501Z,38.17
2023-02-16T02:57:33.116Z,38.63
2023-02-16T03:00:26.319Z,38.33
2023-02-16T03:03:01.363Z,38.25
2023-02-16T03:08:06.540Z,38.42
2023-02-16T03:10:55.352Z,38.42
2023-02-16T03:13:37.983Z,39.67
2023-02-16T03:16:14.170Z,39.90
2023-02-16T03:19:01.599Z,41.97
2023-02-16T03:21:47.765Z,40.63
2023-02-16T03:24:41.039Z,40.15
2023-02-16T03:27:31.023Z,41.83
2023-02-16T03:30:01.113Z,39.40
2023-02-16T03:32:30.693Z,40.65
2023-02-16T03:34:59.030Z,40.20
2023-02-16T03:37:27.401Z,39.88
2023-02-16T03:40:13.500Z,40.08
2023-02-16T03:42:48.848Z,39.03
2023-02-16T03:45:17.249Z,41.35
2023-02-16T03:47:46.825Z,42.30
2023-02-16T03:50:15.322Z,40.38
2023-02-16T03:52:43.593Z,42.10
2023-02-16T03:55:14.317Z,41.38
2023-02-16T03:57:42.467Z,40.92
2023-02-16T04:00:12.078Z,41.65
2023-02-16T04:02:46.042Z,41.55
2023-02-16T04:05:14.172Z,41.35
2023-02-16T04:07:42.337Z,40.78
2023-02-16T04:10:10.725Z,39.58
2023-02-16T04:12:37.908Z,41.40
2023-02-16T04:15:11.015Z,37.88
2023-02-16T04:17:39.183Z,40.22
2023-02-16T04:20:11.912Z,38.65
2023-02-16T04:25:08.596Z,36.90
2023-02-16T04:27:37.481Z,37.85
2023-02-16T04:30:07.803Z,39.05
2023-02-16T04:32:36.105Z,38.03
2023-02-16T04:35:04.368Z,36.05
2023-02-16T04:37:34.380Z,37.20
2023-02-16T04:40:02.705Z,34.45
2023-02-16T04:42:30.913Z,35.67
2023-02-16T04:44:59.050Z,35.15
2023-02-16T04:47:28.566Z,37.03
2023-02-16T04:49:56.671Z,36.80
2023-02-16T04:52:24.763Z,36.53
2023-02-16T04:54:54.387Z,35.22
2023-02-16T04:57:24.178Z,34.08
2023-02-16T04:59:52.489Z,34.90
2023-02-16T05:02:20.733Z,34.33
2023-02-16T05:04:49.127Z,36.13
2023-02-16T05:07:17.559Z,32.70
2023-02-16T05:09:46.090Z,34.85
2023-02-16T05:12:32.774Z,35.15
2023-02-16T05:15:00.983Z,33.42
2023-02-16T05:17:29.725Z,34.58
2023-02-16T05:20:00.347Z,33.58
2023-02-16T05:22:32.443Z,33.15
2023-02-16T05:25:00.594Z,34.88
2023-02-16T05:27:31.590Z,33.88
2023-02-16T05:29:59.894Z,34.45
2023-02-16T05:32:28.124Z,32.83
2023-02-16T05:34:56.337Z,35.05
2023-02-16T05:37:24.467Z,35.45
2023-02-16T05:39:53.829Z,35.33
2023-02-16T05:42:22.122Z,34.60
2023-02-16T05:44:51.624Z,34.95
2023-02-16T05:47:19.917Z,34.78
2023-02-16T05:49:48.158Z,34.15
2023-02-16T05:52:16.694Z,33.78
2023-02-16T05:54:44.828Z,33.65
2023-02-16T05:57:13.102Z,33.30
2023-02-16T05:59:41.274Z,33.65
2023-02-16T06:02:10.902Z,33.80
2023-02-16T06:04:39.085Z,33.38
2023-02-16T06:07:07.333Z,33.03
2023-02-16T06:09:35.919Z,34.33
2023-02-16T06:12:04.202Z,34.47
2023-02-16T06:14:33.015Z,33.95
2023-02-16T06:17:03.667Z,33.53
2023-02-16T06:19:33.394Z,34.08
2023-02-16T06:22:01.549Z,36.08
2023-02-16T06:24:29.949Z,33.75
2023-02-16T06:26:58.057Z,33.72
2023-02-16T06:29:26.538Z,35.85
2023-02-16T06:31:54.888Z,34.15
2023-02-16T06:34:23.232Z,35.20
2023-02-16T06:36:52.808Z,37.42
2023-02-16T06:39:21.350Z,38.60
2023-02-16T06:41:49.630Z,39.55
2023-02-16T06:44:18.406Z,37.20
2023-02-16T06:46:49.086Z,38.28
2023-02-16T06:49:19.446Z,36.70
2023-02-16T06:51:48.549Z,34.83
2023-02-16T06:54:19.059Z,37.22
2023-02-16T06:56:47.392Z,38.13
2023-02-16T06:59:17.969Z,35.97
2023-02-16T07:01:46.229Z,34.63
2023-02-16T07:04:15.125Z,35.53
2023-02-16T07:06:43.391Z,33.42
2023-02-16T07:09:12.888Z,31.38
2023-02-16T07:11:42.561Z,29.63
2023-02-16T07:14:10.997Z,28.65
2023-02-16T07:16:39.453Z,27.77
2023-02-16T07:19:07.954Z,27.02
2023-02-16T07:21:36.172Z,25.90
2023-02-16T07:24:04.494Z,26.20
2023-02-16T07:26:33.356Z,25.55
2023-02-16T07:29:03.086Z,24.95
2023-02-16T07:31:31.625Z,24.35
2023-02-16T07:33:59.866Z,23.90
2023-02-16T07:36:28.128Z,24.50
2023-02-16T07:38:56.212Z,23.23
2023-02-16T07:41:24.595Z,23.77
2023-02-16T07:43:52.860Z,23.98
2023-02-16T07:46:22.428Z,22.90
2023-02-16T07:48:50.917Z,24.83
2023-02-16T07:51:23.085Z,25.25
2023-02-16T07:53:51.343Z,24.42
2023-02-16T07:56:21.580Z,25.67
2023-02-16T07:58:49.709Z,25.63
2023-02-16T08:01:18.547Z,27.65
2023-02-16T08:03:48.225Z,26.33
2023-02-16T08:06:16.850Z,26.55
2023-02-16T08:08:45.657Z,26.88
2023-02-16T08:11:16.266Z,29.15
2023-02-16T08:13:45.484Z,28.30
2023-02-16T08:16:15.609Z,30.60
2023-02-16T08:18:43.926Z,29.70
2023-02-16T08:21:16.039Z,29.20
2023-02-16T08:23:47.708Z,29.98
2023-02-16T08:26:18.302Z,29.75
2023-02-16T08:28:47.349Z,28.73
2023-02-16T08:31:16.882Z,29.08
2023-02-16T08:33:45.436Z,29.85
2023-02-16T08:36:20.456Z,29.08
2023-02-16T08:38:50.282Z,29.13
2023-02-16T08:41:19.106Z,29.23
2023-02-16T08:43:47.458Z,29.65
2023-02-16T08:46:16.948Z,28.17
2023-02-16T08:48:47.429Z,28.65
2023-02-16T08:51:17.498Z,31.70
2023-02-16T08:53:47.738Z,30.17
2023-02-16T08:56:19.863Z,28.35
2023-02-16T08:58:48.328Z,29.08
2023-02-16T09:01:19.770Z,30.25
2023-02-16T09:03:48.487Z,29.98
2023-02-16T09:06:20.356Z,30.95
2023-02-16T09:08:55.383Z,30.55
2023-02-16T09:11:24.566Z,28.98
2023-02-16T09:13:53.238Z,29.67
2023-02-16T09:16:23.934Z,31.13
2023-02-16T09:18:53.431Z,31.70
2023-02-16T09:21:25.443Z,30.00
2023-02-16T09:23:57.678Z,30.98
2023-02-16T09:26:26.988Z,31.25
2023-02-16T09:28:56.880Z,30.63
2023-02-16T09:31:29.113Z,30.85
2023-02-16T09:34:02.060Z,28.80
2023-02-16T09:38:59.981Z,28.27
2023-02-16T09:41:36.704Z,30.00
2023-02-16T09:44:15.181Z,30.38
2023-02-16T09:46:43.863Z,31.05
2023-02-16T09:49:23.800Z,30.80
2023-02-16T09:52:02.479Z,30.55
2023-02-16T09:54:42.348Z,31.15
2023-02-16T09:57:19.434Z,30.33
2023-02-16T09:59:53.287Z,29.83
2023-02-16T10:02:38.220Z,30.70
2023-02-16T10:05:20.271Z,30.92
2023-02-16T10:08:01.900Z,32.47
2023-02-16T10:10:40.118Z,31.88
2023-02-16T10:13:14.500Z,33.15
2023-02-16T10:15:46.015Z,31.67
2023-02-16T10:18:26.793Z,30.88
2023-02-16T10:20:59.788Z,33.55
2023-02-16T10:23:41.846Z,33.03
2023-02-16T10:26:19.405Z,32.25
2023-02-16T10:28:50.300Z,33.47
2023-02-16T10:31:24.582Z,32.35
2023-02-16T10:34:09.653Z,31.73
2023-02-16T10:37:04.954Z,33.33
2023-02-16T10:39:40.724Z,32.47
2023-02-16T10:42:20.180Z,31.10
2023-02-16T10:44:55.464Z,31.85
2023-02-16T10:47:32.706Z,33.40
2023-02-16T10:50:01.078Z,31.98
2023-02-16T10:52:35.508Z,31.90
2023-02-16T10:55:03.888Z,29.52
2023-02-16T10:57:34.503Z,33.03
2023-02-16T11:00:06.553Z,31.23
2023-02-16T11:02:39.351Z,33.00
2023-02-16T11:08:02.004Z,30.95
2023-02-16T11:10:40.240Z,32.35
2023-02-16T11:13:23.504Z,32.90
2023-02-16T11:15:54.865Z,32.38
2023-02-16T11:18:36.600Z,31.58
2023-02-16T11:21:06.529Z,31.10
2023-02-16T11:23:36.677Z,31.10
2023-02-16T11:26:06.709Z,31.83
2023-02-16T11:28:38.807Z,31.95
2023-02-16T11:31:15.034Z,31.27
2023-02-16T11:33:44.326Z,30.80
2023-02-16T11:36:26.216Z,32.88
2023-02-16T11:39:00.525Z,31.80
2023-02-16T11:41:29.814Z,32.28
2023-02-16T11:43:59.711Z,32.42
2023-02-16T11:46:28.653Z,32.13
2023-02-16T11:48:57.104Z,30.42
2023-02-16T11:51:34.964Z,31.63
2023-02-16T11:54:06.139Z,32.13
2023-02-16T11:56:36.244Z,31.25
2023-02-16T11:59:19.210Z,31.85
2023-02-16T12:02:11.532Z,29.65
2023-02-16T12:04:54.062Z,30.47
2023-02-16T12:07:32.385Z,30.50
2023-02-16T12:10:08.407Z,31.10
2023-02-16T12:12:44.551Z,31.05
2023-02-16T12:15:22.447Z,29.83
2023-02-16T12:18:08.320Z,29.65
2023-02-16T12:20:48.990Z,30.70
2023-02-16T12:23:33.341Z,30.00
2023-02-16T12:26:27.243Z,29.00
2023-02-16T12:29:06.797Z,29.63
2023-02-16T12:31:52.046Z,29.70
2023-02-16T12:34:33.229Z,28.13
2023-02-16T12:37:10.221Z,28.63
2023-02-16T12:39:48.666Z,28.08
2023-02-16T12:42:35.087Z,29.00
2023-02-16T12:45:10.924Z,29.38
2023-02-16T12:47:46.718Z,27.25
2023-02-16T12:50:21.263Z,30.65
2023-02-16T12:52:58.266Z,29.10
2023-02-16T12:55:30.031Z,27.77
2023-02-16T12:58:04.318Z,27.98
2023-02-16T13:00:42.823Z,27.48
2023-02-16T13:03:25.150Z,26.85
2023-02-16T13:06:04.246Z,28.10
2023-02-16T13:08:41.085Z,27.48
2023-02-16T13:11:17.570Z,25.95
2023-02-16T13:13:49.076Z,26.85
2023-02-16T13:16:30.151Z,26.27
2023-02-16T13:19:00.472Z,26.92
2023-02-16T13:21:55.372Z,26.33
2023-02-16T13:24:37.738Z,26.45
2023-02-16T13:27:20.862Z,25.77
2023-02-16T13:32:50.828Z,25.23
2023-02-16T13:35:37.947Z,26.02
2023-02-16T13:38:22.075Z,25.13
2023-02-16T13:41:18.325Z,25.45
2023-02-16T13:43:53.951Z,25.13
2023-02-16T13:46:28.726Z,24.08
2023-02-16T13:48:57.404Z,25.55
2023-02-16T13:51:30.983Z,24.92
2023-02-16T13:54:01.589Z,25.92
2023-02-16T13:56:36.244Z,24.50
2023-02-16T13:59:59.353Z,25.75
2023-02-16T14:02:56.924Z,24.50
2023-02-16T14:05:36.842Z,25.33
2023-02-16T14:08:22.960Z,25.15
2023-02-16T14:11:09.549Z,23.90
2023-02-16T14:13:52.102Z,26.33
2023-02-16T14:16:31.570Z,25.58
2023-02-16T14:19:18.355Z,24.65
2023-02-16T14:21:49.047Z,23.92
2023-02-16T14:24:32.680Z,24.83
2023-02-16T14:27:04.389Z,23.48
2023-02-16T14:29:37.823Z,22.73
2023-02-16T14:32:18.288Z,24.70
2023-02-16T14:34:54.089Z,25.52
2023-02-16T14:37:30.243Z,24.20
2023-02-16T14:40:20.745Z,22.98
2023-02-16T14:42:57.266Z,23.33
2023-02-16T14:45:53.786Z,23.38
2023-02-16T14:48:36.264Z,22.63
2023-02-16T14:51:34.761Z,21.52
2023-02-16T14:54:43.797Z,22.63
2023-02-16T14:57:16.615Z,23.58
2023-02-16T15:02:34.117Z,24.20
2023-02-16T15:05:18.836Z,23.65
2023-02-16T15:07:53.010Z,24.23
2023-02-16T15:10:26.906Z,24.23
2023-02-16T15:12:57.511Z,24.98
2023-02-16T15:15:32.617Z,26.52
2023-02-16T15:18:01.832Z,23.23
2023-02-16T15:20:34.152Z,26.58
2023-02-16T15:23:04.472Z,25.92
2023-02-16T15:25:35.365Z,23.33
2023-02-16T15:28:20.309Z,25.15
2023-02-16T15:30:51.071Z,23.83
2023-02-16T15:33:32.482Z,23.60
2023-02-16T15:36:03.003Z,22.98
2023-02-16T15:38:33.840Z,24.85
2023-02-16T15:41:06.849Z,24.25
2023-02-16T15:43:39.923Z,22.55
2023-02-16T15:46:14.860Z,22.83
2023-02-16T15:48:43.358Z,21.80
2023-02-16T15:51:17.316Z,23.45
2023-02-16T15:53:49.802Z,22.30
2023-02-16T15:56:29.556Z,23.23
2023-02-16T15:59:04.895Z,22.95
2023-02-16T16:01:35.350Z,24.70
2023-02-16T16:04:06.169Z,26.02
2023-02-16T16:06:39.556Z,28.00
2023-02-16T16:09:11.849Z,26.73
2023-02-16T16:11:40.322Z,24.10
2023-02-16T16:14:12.582Z,25.05
2023-02-16T16:16:40.948Z,26.83
2023-02-16T16:19:15.430Z,22.25
2023-02-16T16:21:54.264Z,25.38
2023-02-16T16:24:34.164Z,27.25
2023-02-16T16:27:05.979Z,25.70
2023-02-16T16:29:41.581Z,23.85
2023-02-16T16:32:20.510Z,23.30
2023-02-16T16:34:49.635Z,22.83
2023-02-16T16:37:26.404Z,24.77
2023-02-16T16:40:04.829Z,23.02
2023-02-16T16:42:34.625Z,22.98
2023-02-16T16:45:08.628Z,23.15
2023-02-16T16:47:40.558Z,24.33
2023-02-16T16:50:33.491Z,23.50
2023-02-16T16:53:02.580Z,24.63
2023-02-16T16:55:34.052Z,24.10
2023-02-16T16:58:05.649Z,25.20
2023-02-16T17:00:38.286Z,28.05
2023-02-16T17:03:08.374Z,27.20
2023-02-16T17:05:38.334Z,25.73
2023-02-16T17:08:07.278Z,27.00
2023-02-16T17:10:40.362Z,28.42
2023-02-16T17:13:09.076Z,30.33
2023-02-16T17:15:44.904Z,32.38
2023-02-16T17:18:17.094Z,27.65
2023-02-16T17:20:45.643Z,28.15
2023-02-16T17:23:15.413Z,28.88
2023-02-16T17:25:44.031Z,29.50
2023-02-16T17:28:14.517Z,28.67
2023-02-16T17:30:44.716Z,26.58
2023-02-16T17:33:14.516Z,30.63
2023-02-16T17:35:44.447Z,29.85
2023-02-16T17:38:15.106Z,28.20
2023-02-16T17:40:45.335Z,29.00
2023-02-16T17:43:14.764Z,28.35
2023-02-16T17:45:48.970Z,26.77
2023-02-16T17:48:20.400Z,28.77
2023-02-16T17:50:51.234Z,30.80
2023-02-16T17:53:21.499Z,33.58
2023-02-16T17:55:51.678Z,30.55
2023-02-16T18:00:56.084Z,29.30
2023-02-16T18:03:27.174Z,29.02
2023-02-16T18:05:57.031Z,27.88
2023-02-16T18:08:25.284Z,28.90
2023-02-16T18:11:01.735Z,29.08
2023-02-16T18:13:30.789Z,27.23
2023-02-16T18:16:06.943Z,26.73
2023-02-16T18:18:36.826Z,25.98
2023-02-16T18:21:05.363Z,28.85
2023-02-16T18:23:34.115Z,28.58
2023-02-16T18:26:02.561Z,27.45
2023-02-16T18:28:32.840Z,29.08
2023-02-16T18:31:07.134Z,30.23
2023-02-16T18:33:35.805Z,27.83
2023-02-16T18:36:04.619Z,29.58
2023-02-16T18:38:33.523Z,30.02
2023-02-16T18:41:01.810Z,30.00
2023-02-16T18:43:30.077Z,28.38
2023-02-16T18:45:58.762Z,28.25
2023-02-16T18:48:29.467Z,28.08
2023-02-16T18:50:57.680Z,28.02
2023-02-16T18:53:26.089Z,28.63
2023-02-16T18:55:54.502Z,28.73
2023-02-16T18:58:24.887Z,28.13
2023-02-16T19:00:53.260Z,28.60
2023-02-16T19:03:21.588Z,27.45
2023-02-16T19:05:51.535Z,26.98
2023-02-16T19:08:20.096Z,27.33
2023-02-16T19:10:48.488Z,26.60
2023-02-16T19:13:16.848Z,27.67
2023-02-16T19:15:45.045Z,30.48
2023-02-16T19:18:13.430Z,29.90
2023-02-16T19:20:41.849Z,28.83
2023-02-16T19:23:11.897Z,28.60
2023-02-16T19:25:40.508Z,27.92
2023-02-16T19:28:08.902Z,27.50
2023-02-16T19:30:37.292Z,27.92
2023-02-16T19:33:05.570Z,27.27
2023-02-16T19:35:33.751Z,26.27
2023-02-16T19:38:02.636Z,27.45
2023-02-16T19:40:34.282Z,27.95
2023-02-16T19:43:02.566Z,27.73
2023-02-16T19:45:32.807Z,26.55
2023-02-16T19:48:00.895Z,27.33
2023-02-16T19:50:29.333Z,27.40
2023-02-16T19:52:57.637Z,27.40
2023-02-16T19:55:26.365Z,27.65
2023-02-16T19:57:56.294Z,26.20
2023-02-16T20:00:24.643Z,27.25
2023-02-16T20:02:53.666Z,26.15
2023-02-16T20:05:21.991Z,26.38
2023-02-16T20:07:50.206Z,26.13
2023-02-16T20:10:18.482Z,25.90
2023-02-16T20:12:46.626Z,27.45
2023-02-16T20:15:16.401Z,26.92
2023-02-16T20:17:44.768Z,26.77
2023-02-16T20:20:14.076Z,26.48
2023-02-16T20:22:42.242Z,27.20
2023-02-16T20:25:11.201Z,25.30
2023-02-16T20:27:41.482Z,25.10
2023-02-16T20:30:15.806Z,27.00
2023-02-16T20:32:47.057Z,26.55
2023-02-16T20:35:16.107Z,26.15
2023-02-16T20:37:44.391Z,26.80
2023-02-16T20:40:13.494Z,26.45
2023-02-16T20:42:41.813Z,27.50
2023-02-16T20:45:12.319Z,26.85
2023-02-16T20:47:41.086Z,27.17
2023-02-16T20:50:11.697Z,27.30
2023-02-16T20:52:40.177Z,25.50
2023-02-16T20:55:09.674Z,27.88
2023-02-16T20:57:38.893Z,28.10
2023-02-16T21:00:13.200Z,28.10
2023-02-16T21:02:42.227Z,26.60
2023-02-16T21:05:14.876Z,27.40
2023-02-16T21:07:43.043Z,26.95
2023-02-16T21:10:12.855Z,27.75
2023-02-16T21:12:41.015Z,27.58
2023-02-16T21:15:10.693Z,30.10
2023-02-16T21:17:39.080Z,32.08
2023-02-16T21:20:09.424Z,32.40
2023-02-16T21:22:38.917Z,32.78
2023-02-16T21:25:08.916Z,31.92
2023-02-16T21:27:37.162Z,32.13
2023-02-16T21:30:06.890Z,31.52
2023-02-16T21:32:35.139Z,48.85
2023-02-16T21:35:03.554Z,62.28
2023-02-16T21:37:35.624Z,83.40
2023-02-16T21:40:23.162Z,58.25
2023-02-16T21:42:51.833Z,53.97
2023-02-16T21:45:20.377Z,41.00
2023-02-16T21:48:06.353Z,42.85
2023-02-16T21:50:37.257Z,39.08
2023-02-16T21:53:06.944Z,31.20
2023-02-16T21:55:54.946Z,30.95
2023-02-16T21:58:27.004Z,32.15
2023-02-16T22:00:56.454Z,28.95
2023-02-16T22:03:24.743Z,29.58
2023-02-16T22:05:53.134Z,30.67
2023-02-16T22:08:21.241Z,29.63
2023-02-16T22:10:51.185Z,30.05
2023-02-16T22:13:19.257Z,30.88
2023-02-16T22:15:48.853Z,30.38
2023-02-16T22:18:16.930Z,29.98
2023-02-16T22:20:45.141Z,31.55
2023-02-16T22:23:13.319Z,30.58
2023-02-16T22:25:41.565Z,30.67
2023-02-16T22:28:11.383Z,30.35
2023-02-16T22:30:39.629Z,30.88
2023-02-16T22:33:07.806Z,31.25
2023-02-16T22:35:36.028Z,30.85
2023-02-16T22:38:04.195Z,30.98
2023-02-16T22:40:32.552Z,31.85
2023-02-16T22:43:00.763Z,33.08
2023-02-16T22:45:31.140Z,32.70
2023-02-16T22:47:59.518Z,32.08
2023-02-16T22:50:27.845Z,32.30
2023-02-16T22:52:56.223Z,33.25
2023-02-16T22:55:24.431Z,32.63
2023-02-16T22:57:52.936Z,34.85
2023-02-16T23:00:21.183Z,32.13
2023-02-16T23:02:50.753Z,32.40
2023-02-16T23:05:19.100Z,34.25
2023-02-16T23:07:47.373Z,33.53
2023-02-16T23:10:15.988Z,35.08
2023-02-16T23:12:44.235Z,34.17
2023-02-16T23:15:12.411Z,33.90
2023-02-16T23:17:42.799Z,34.67
2023-02-16T23:20:13.188Z,33.35
2023-02-16T23:22:41.375Z,37.45
2023-02-16T23:25:27.090Z,35.28
2023-02-16T23:27:55.933Z,34.15
2023-02-16T23:30:24.186Z,35.17
2023-02-16T23:32:52.880Z,35.38
2023-02-16T23:35:22.746Z,34.25
2023-02-16T23:37:50.949Z,36.10
2023-02-16T23:40:19.365Z,36.00
2023-02-16T23:42:47.625Z,36.38
2023-02-16T23:45:15.879Z,34.13
2023-02-16T23:47:44.059Z,35.72
2023-02-16T23:50:25.526Z,36.25
2023-02-16T23:52:55.029Z,35.78
2023-02-16T23:55:23.425Z,37.33
2023-02-16T23:57:51.630Z,34.55
